sensor_id;sensor_type;location;lat;lon;timestamp;P1;durP1;ratioP1;P2;durP2;ratioP2
33347;SDS011;19707;51.158;17.124;2022-07-03T00:01:48;8.73;;;6.15;;
33347;SDS011;19707;51.158;17.124;2022-07-03T00:04:51;9.00;;;6.30;;
33347;SDS011;19707;51.158;17.124;2022-07-03T00:07:52;8.23;;;6.67;;
33347;SDS011;19707;51.158;17.124;2022-07-03T00:10:55;7.60;;;5.70;;
33347;SDS011;19707;51.158;17.124;2022-07-03T00:14:01;7.35;;;6.55;;
33347;SDS011;19707;51.158;17.124;2022-07-03T00:17:06;7.22;;;6.00;;
33347;SDS011;19707;51.158;17.124;2022-07-03T00:20:09;8.78;;;6.35;;
33347;SDS011;19707;51.158;17.124;2022-07-03T00:23:13;8.95;;;5.95;;
33347;SDS011;19707;51.158;17.124;2022-07-03T00:26:21;8.08;;;7.00;;
33347;SDS011;19707;51.158;17.124;2022-07-03T00:29:27;7.78;;;5.97;;
33347;SDS011;19707;51.158;17.124;2022-07-03T00:32:30;8.23;;;5.70;;
33347;SDS011;19707;51.158;17.124;2022-07-03T00:35:32;7.40;;;6.62;;
33347;SDS011;19707;51.158;17.124;2022-07-03T00:38:35;10.65;;;6.65;;
33347;SDS011;19707;51.158;17.124;2022-07-03T00:41:37;7.47;;;6.22;;
33347;SDS011;19707;51.158;17.124;2022-07-03T00:44:46;7.12;;;6.30;;
33347;SDS011;19707;51.158;17.124;2022-07-03T00:47:52;6.40;;;5.80;;
33347;SDS011;19707;51.158;17.124;2022-07-03T00:50:56;7.28;;;5.65;;
33347;SDS011;19707;51.158;17.124;2022-07-03T00:53:59;7.50;;;6.40;;
33347;SDS011;19707;51.158;17.124;2022-07-03T00:57:03;9.58;;;5.97;;
33347;SDS011;19707;51.158;17.124;2022-07-03T01:00:06;5.92;;;5.33;;
33347;SDS011;19707;51.158;17.124;2022-07-03T01:03:11;6.80;;;5.55;;
33347;SDS011;19707;51.158;17.124;2022-07-03T01:06:19;8.95;;;6.03;;
33347;SDS011;19707;51.158;17.124;2022-07-03T01:09:26;11.90;;;6.33;;
33347;SDS011;19707;51.158;17.124;2022-07-03T01:12:33;8.10;;;7.05;;
33347;SDS011;19707;51.158;17.124;2022-07-03T01:25:45;10.63;;;6.42;;
33347;SDS011;19707;51.158;17.124;2022-07-03T01:28:48;9.78;;;6.95;;
33347;SDS011;19707;51.158;17.124;2022-07-03T01:31:54;8.75;;;6.70;;
33347;SDS011;19707;51.158;17.124;2022-07-03T01:34:55;12.40;;;7.80;;
33347;SDS011;19707;51.158;17.124;2022-07-03T01:38:00;9.40;;;7.17;;
33347;SDS011;19707;51.158;17.124;2022-07-03T01:41:13;11.05;;;7.78;;
33347;SDS011;19707;51.158;17.124;2022-07-03T01:44:14;10.68;;;7.20;;
33347;SDS011;19707;51.158;17.124;2022-07-03T01:47:15;9.65;;;7.25;;
33347;SDS011;19707;51.158;17.124;2022-07-03T01:50:17;12.35;;;7.72;;
33347;SDS011;19707;51.158;17.124;2022-07-03T01:56:31;9.50;;;7.50;;
33347;SDS011;19707;51.158;17.124;2022-07-03T01:59:34;11.57;;;7.30;;
33347;SDS011;19707;51.158;17.124;2022-07-03T02:02:37;9.33;;;6.45;;
33347;SDS011;19707;51.158;17.124;2022-07-03T02:06:12;11.50;;;6.87;;
33347;SDS011;19707;51.158;17.124;2022-07-03T02:09:15;11.63;;;7.27;;
33347;SDS011;19707;51.158;17.124;2022-07-03T02:12:19;10.08;;;6.80;;
33347;SDS011;19707;51.158;17.124;2022-07-03T02:15:28;8.83;;;7.55;;
33347;SDS011;19707;51.158;17.124;2022-07-03T02:18:28;9.03;;;7.53;;
33347;SDS011;19707;51.158;17.124;2022-07-03T02:21:33;8.95;;;7.20;;
33347;SDS011;19707;51.158;17.124;2022-07-03T02:24:46;9.83;;;8.03;;
33347;SDS011;19707;51.158;17.124;2022-07-03T02:28:11;13.75;;;10.05;;
33347;SDS011;19707;51.158;17.124;2022-07-03T02:30:57;11.50;;;7.58;;
33347;SDS011;19707;51.158;17.124;2022-07-03T02:34:00;9.90;;;6.90;;
33347;SDS011;19707;51.158;17.124;2022-07-03T02:37:13;10.10;;;6.50;;
33347;SDS011;19707;51.158;17.124;2022-07-03T02:40:26;11.22;;;8.30;;
33347;SDS011;19707;51.158;17.124;2022-07-03T02:47:12;9.78;;;8.05;;
33347;SDS011;19707;51.158;17.124;2022-07-03T02:50:28;10.35;;;7.40;;
33347;SDS011;19707;51.158;17.124;2022-07-03T02:53:41;9.63;;;7.25;;
33347;SDS011;19707;51.158;17.124;2022-07-03T03:00:10;9.33;;;7.40;;
33347;SDS011;19707;51.158;17.124;2022-07-03T03:03:12;13.00;;;7.87;;
33347;SDS011;19707;51.158;17.124;2022-07-03T03:06:14;11.38;;;8.10;;
33347;SDS011;19707;51.158;17.124;2022-07-03T03:09:19;10.08;;;7.35;;
33347;SDS011;19707;51.158;17.124;2022-07-03T03:12:30;9.05;;;7.90;;
33347;SDS011;19707;51.158;17.124;2022-07-03T03:15:33;8.87;;;8.00;;
33347;SDS011;19707;51.158;17.124;2022-07-03T03:18:37;10.88;;;7.37;;
33347;SDS011;19707;51.158;17.124;2022-07-03T03:21:42;8.95;;;7.30;;
33347;SDS011;19707;51.158;17.124;2022-07-03T03:25:03;8.68;;;7.22;;
33347;SDS011;19707;51.158;17.124;2022-07-03T03:28:05;10.78;;;7.92;;
33347;SDS011;19707;51.158;17.124;2022-07-03T03:31:07;11.57;;;7.42;;
33347;SDS011;19707;51.158;17.124;2022-07-03T03:34:10;9.75;;;7.60;;
33347;SDS011;19707;51.158;17.124;2022-07-03T03:37:12;14.80;;;10.15;;
33347;SDS011;19707;51.158;17.124;2022-07-03T03:40:15;13.32;;;10.03;;
33347;SDS011;19707;51.158;17.124;2022-07-03T03:43:18;16.93;;;10.70;;
33347;SDS011;19707;51.158;17.124;2022-07-03T03:46:19;15.83;;;9.68;;
33347;SDS011;19707;51.158;17.124;2022-07-03T03:49:20;11.80;;;7.75;;
33347;SDS011;19707;51.158;17.124;2022-07-03T03:52:22;11.68;;;8.95;;
33347;SDS011;19707;51.158;17.124;2022-07-03T03:55:24;20.72;;;10.48;;
33347;SDS011;19707;51.158;17.124;2022-07-03T03:58:26;11.43;;;9.48;;
33347;SDS011;19707;51.158;17.124;2022-07-03T04:01:33;14.68;;;9.48;;
33347;SDS011;19707;51.158;17.124;2022-07-03T04:04:34;11.45;;;8.48;;
33347;SDS011;19707;51.158;17.124;2022-07-03T04:07:36;10.55;;;8.58;;
33347;SDS011;19707;51.158;17.124;2022-07-03T04:10:37;10.55;;;9.28;;
33347;SDS011;19707;51.158;17.124;2022-07-03T04:13:39;10.32;;;9.15;;
33347;SDS011;19707;51.158;17.124;2022-07-03T04:16:40;11.73;;;8.18;;
33347;SDS011;19707;51.158;17.124;2022-07-03T04:19:41;13.70;;;8.65;;
33347;SDS011;19707;51.158;17.124;2022-07-03T04:22:42;11.73;;;7.58;;
33347;SDS011;19707;51.158;17.124;2022-07-03T04:25:44;12.15;;;7.72;;
33347;SDS011;19707;51.158;17.124;2022-07-03T04:28:47;11.35;;;8.05;;
33347;SDS011;19707;51.158;17.124;2022-07-03T04:31:48;10.20;;;8.68;;
33347;SDS011;19707;51.158;17.124;2022-07-03T04:34:50;10.65;;;8.43;;
33347;SDS011;19707;51.158;17.124;2022-07-03T04:37:51;14.18;;;8.23;;
33347;SDS011;19707;51.158;17.124;2022-07-03T04:40:52;11.60;;;8.50;;
33347;SDS011;19707;51.158;17.124;2022-07-03T04:43:54;11.85;;;8.78;;
33347;SDS011;19707;51.158;17.124;2022-07-03T04:46:55;8.73;;;7.80;;
33347;SDS011;19707;51.158;17.124;2022-07-03T04:49:56;8.58;;;6.85;;
33347;SDS011;19707;51.158;17.124;2022-07-03T04:52:57;9.48;;;6.75;;
33347;SDS011;19707;51.158;17.124;2022-07-03T04:55:59;13.10;;;6.58;;
33347;SDS011;19707;51.158;17.124;2022-07-03T04:59:07;10.05;;;6.97;;
33347;SDS011;19707;51.158;17.124;2022-07-03T05:02:13;13.03;;;6.55;;
33347;SDS011;19707;51.158;17.124;2022-07-03T05:08:24;7.05;;;5.75;;
33347;SDS011;19707;51.158;17.124;2022-07-03T05:11:32;8.53;;;5.53;;
33347;SDS011;19707;51.158;17.124;2022-07-03T05:14:41;8.23;;;5.12;;
33347;SDS011;19707;51.158;17.124;2022-07-03T05:17:46;6.60;;;5.50;;
33347;SDS011;19707;51.158;17.124;2022-07-03T05:20:48;5.55;;;4.83;;
33347;SDS011;19707;51.158;17.124;2022-07-03T05:23:49;6.20;;;5.12;;
33347;SDS011;19707;51.158;17.124;2022-07-03T05:26:51;9.95;;;5.85;;
33347;SDS011;19707;51.158;17.124;2022-07-03T05:32:56;6.45;;;5.55;;
33347;SDS011;19707;51.158;17.124;2022-07-03T05:35:58;8.48;;;5.42;;
33347;SDS011;19707;51.158;17.124;2022-07-03T05:39:02;6.50;;;5.12;;
33347;SDS011;19707;51.158;17.124;2022-07-03T05:42:21;5.40;;;4.90;;
33347;SDS011;19707;51.158;17.124;2022-07-03T05:45:22;6.15;;;5.30;;
33347;SDS011;19707;51.158;17.124;2022-07-03T05:48:24;5.83;;;5.33;;
33347;SDS011;19707;51.158;17.124;2022-07-03T05:51:25;5.75;;;5.15;;
33347;SDS011;19707;51.158;17.124;2022-07-03T05:54:27;4.85;;;4.37;;
33347;SDS011;19707;51.158;17.124;2022-07-03T05:57:28;6.70;;;4.97;;
33347;SDS011;19707;51.158;17.124;2022-07-03T06:00:29;5.50;;;5.00;;
33347;SDS011;19707;51.158;17.124;2022-07-03T06:03:30;5.30;;;4.90;;
33347;SDS011;19707;51.158;17.124;2022-07-03T06:06:32;5.33;;;4.92;;
33347;SDS011;19707;51.158;17.124;2022-07-03T06:09:34;5.37;;;4.83;;
33347;SDS011;19707;51.158;17.124;2022-07-03T06:12:36;5.83;;;4.85;;
33347;SDS011;19707;51.158;17.124;2022-07-03T06:15:38;6.58;;;4.37;;
33347;SDS011;19707;51.158;17.124;2022-07-03T06:18:39;5.83;;;4.28;;
33347;SDS011;19707;51.158;17.124;2022-07-03T06:21:43;4.75;;;4.20;;
33347;SDS011;19707;51.158;17.124;2022-07-03T06:24:45;5.30;;;4.90;;
33347;SDS011;19707;51.158;17.124;2022-07-03T06:27:47;5.17;;;4.67;;
33347;SDS011;19707;51.158;17.124;2022-07-03T06:30:48;4.67;;;4.28;;
33347;SDS011;19707;51.158;17.124;2022-07-03T06:33:50;5.70;;;5.20;;
33347;SDS011;19707;51.158;17.124;2022-07-03T06:36:51;5.15;;;4.53;;
33347;SDS011;19707;51.158;17.124;2022-07-03T06:39:52;4.40;;;4.00;;
33347;SDS011;19707;51.158;17.124;2022-07-03T06:42:54;4.65;;;4.17;;
33347;SDS011;19707;51.158;17.124;2022-07-03T06:45:55;5.20;;;4.70;;
33347;SDS011;19707;51.158;17.124;2022-07-03T06:48:56;4.30;;;3.92;;
33347;SDS011;19707;51.158;17.124;2022-07-03T06:51:58;5.45;;;4.90;;
33347;SDS011;19707;51.158;17.124;2022-07-03T06:54:59;4.00;;;3.62;;
33347;SDS011;19707;51.158;17.124;2022-07-03T06:58:01;3.80;;;3.60;;
33347;SDS011;19707;51.158;17.124;2022-07-03T07:01:02;4.72;;;4.05;;
33347;SDS011;19707;51.158;17.124;2022-07-03T07:04:03;4.05;;;3.65;;
33347;SDS011;19707;51.158;17.124;2022-07-03T07:07:05;3.80;;;3.50;;
33347;SDS011;19707;51.158;17.124;2022-07-03T07:10:06;3.50;;;3.20;;
33347;SDS011;19707;51.158;17.124;2022-07-03T07:13:08;3.85;;;3.00;;
33347;SDS011;19707;51.158;17.124;2022-07-03T07:16:10;3.67;;;3.37;;
33347;SDS011;19707;51.158;17.124;2022-07-03T07:19:14;4.17;;;3.65;;
33347;SDS011;19707;51.158;17.124;2022-07-03T07:22:16;3.05;;;2.85;;
33347;SDS011;19707;51.158;17.124;2022-07-03T07:25:17;3.17;;;2.87;;
33347;SDS011;19707;51.158;17.124;2022-07-03T07:28:18;2.90;;;2.70;;
33347;SDS011;19707;51.158;17.124;2022-07-03T07:31:20;2.77;;;2.58;;
33347;SDS011;19707;51.158;17.124;2022-07-03T07:34:21;2.50;;;2.35;;
33347;SDS011;19707;51.158;17.124;2022-07-03T07:37:22;2.98;;;2.77;;
33347;SDS011;19707;51.158;17.124;2022-07-03T07:40:23;2.98;;;2.77;;
33347;SDS011;19707;51.158;17.124;2022-07-03T07:43:25;2.37;;;2.27;;
33347;SDS011;19707;51.158;17.124;2022-07-03T07:46:28;2.67;;;2.47;;
33347;SDS011;19707;51.158;17.124;2022-07-03T07:49:30;3.22;;;2.70;;
33347;SDS011;19707;51.158;17.124;2022-07-03T07:52:31;2.80;;;2.52;;
33347;SDS011;19707;51.158;17.124;2022-07-03T07:55:32;2.50;;;2.22;;
33347;SDS011;19707;51.158;17.124;2022-07-03T07:58:33;3.10;;;2.27;;
33347;SDS011;19707;51.158;17.124;2022-07-03T08:01:34;2.45;;;2.27;;
33347;SDS011;19707;51.158;17.124;2022-07-03T08:04:54;2.47;;;2.30;;
33347;SDS011;19707;51.158;17.124;2022-07-03T08:08:15;3.10;;;2.20;;
33347;SDS011;19707;51.158;17.124;2022-07-03T08:11:17;2.22;;;2.12;;
33347;SDS011;19707;51.158;17.124;2022-07-03T08:14:18;3.98;;;2.60;;
33347;SDS011;19707;51.158;17.124;2022-07-03T08:17:20;2.45;;;2.25;;
33347;SDS011;19707;51.158;17.124;2022-07-03T08:20:21;2.10;;;1.90;;
33347;SDS011;19707;51.158;17.124;2022-07-03T08:23:22;2.50;;;2.27;;
33347;SDS011;19707;51.158;17.124;2022-07-03T08:26:24;2.70;;;2.00;;
33347;SDS011;19707;51.158;17.124;2022-07-03T08:29:25;2.12;;;1.92;;
33347;SDS011;19707;51.158;17.124;2022-07-03T08:32:28;2.65;;;2.45;;
33347;SDS011;19707;51.158;17.124;2022-07-03T08:35:29;1.90;;;1.80;;
33347;SDS011;19707;51.158;17.124;2022-07-03T08:38:32;2.65;;;1.70;;
33347;SDS011;19707;51.158;17.124;2022-07-03T08:41:38;2.67;;;2.00;;
33347;SDS011;19707;51.158;17.124;2022-07-03T08:44:39;2.42;;;1.87;;
33347;SDS011;19707;51.158;17.124;2022-07-03T08:47:43;3.52;;;1.62;;
33347;SDS011;19707;51.158;17.124;2022-07-03T08:50:46;2.00;;;1.80;;
33347;SDS011;19707;51.158;17.124;2022-07-03T08:53:48;1.35;;;1.20;;
33347;SDS011;19707;51.158;17.124;2022-07-03T08:56:49;1.95;;;1.65;;
33347;SDS011;19707;51.158;17.124;2022-07-03T08:59:51;2.27;;;1.37;;
33347;SDS011;19707;51.158;17.124;2022-07-03T09:02:54;1.50;;;1.40;;
33347;SDS011;19707;51.158;17.124;2022-07-03T09:05:57;3.58;;;1.60;;
33347;SDS011;19707;51.158;17.124;2022-07-03T09:09:00;1.37;;;1.25;;
33347;SDS011;19707;51.158;17.124;2022-07-03T09:12:03;2.60;;;1.50;;
33347;SDS011;19707;51.158;17.124;2022-07-03T09:15:06;2.25;;;1.50;;
33347;SDS011;19707;51.158;17.124;2022-07-03T09:18:09;1.55;;;1.35;;
33347;SDS011;19707;51.158;17.124;2022-07-03T09:21:11;1.85;;;1.75;;
33347;SDS011;19707;51.158;17.124;2022-07-03T09:24:13;1.90;;;1.60;;
33347;SDS011;19707;51.158;17.124;2022-07-03T09:27:19;2.58;;;1.80;;
33347;SDS011;19707;51.158;17.124;2022-07-03T09:30:22;2.58;;;2.05;;
33347;SDS011;19707;51.158;17.124;2022-07-03T09:33:23;1.90;;;1.77;;
33347;SDS011;19707;51.158;17.124;2022-07-03T09:39:54;1.40;;;1.30;;
33347;SDS011;19707;51.158;17.124;2022-07-03T09:43:04;3.52;;;1.77;;
33347;SDS011;19707;51.158;17.124;2022-07-03T09:46:06;3.92;;;1.77;;
33347;SDS011;19707;51.158;17.124;2022-07-03T09:49:08;2.05;;;1.60;;
33347;SDS011;19707;51.158;17.124;2022-07-03T09:52:24;2.52;;;1.62;;
33347;SDS011;19707;51.158;17.124;2022-07-03T09:55:20;1.40;;;1.30;;
33347;SDS011;19707;51.158;17.124;2022-07-03T09:58:21;1.50;;;1.40;;
33347;SDS011;19707;51.158;17.124;2022-07-03T10:01:23;2.87;;;1.60;;
33347;SDS011;19707;51.158;17.124;2022-07-03T10:04:25;1.60;;;1.50;;
33347;SDS011;19707;51.158;17.124;2022-07-03T10:07:27;1.32;;;1.22;;
33347;SDS011;19707;51.158;17.124;2022-07-03T10:10:32;1.35;;;1.22;;
33347;SDS011;19707;51.158;17.124;2022-07-03T10:13:37;1.35;;;1.25;;
33347;SDS011;19707;51.158;17.124;2022-07-03T10:16:40;1.50;;;1.40;;
33347;SDS011;19707;51.158;17.124;2022-07-03T10:19:42;3.52;;;1.70;;
33347;SDS011;19707;51.158;17.124;2022-07-03T10:22:45;2.00;;;1.60;;
33347;SDS011;19707;51.158;17.124;2022-07-03T10:25:47;1.80;;;1.50;;
33347;SDS011;19707;51.158;17.124;2022-07-03T10:28:49;1.50;;;1.40;;
33347;SDS011;19707;51.158;17.124;2022-07-03T10:31:51;2.12;;;1.77;;
33347;SDS011;19707;51.158;17.124;2022-07-03T10:34:53;1.37;;;1.27;;
33347;SDS011;19707;51.158;17.124;2022-07-03T10:41:12;1.50;;;1.40;;
33347;SDS011;19707;51.158;17.124;2022-07-03T10:45:08;1.55;;;1.42;;
33347;SDS011;19707;51.158;17.124;2022-07-03T10:48:13;1.70;;;1.60;;
33347;SDS011;19707;51.158;17.124;2022-07-03T10:51:14;1.90;;;1.80;;
33347;SDS011;19707;51.158;17.124;2022-07-03T10:54:16;3.25;;;1.40;;
33347;SDS011;19707;51.158;17.124;2022-07-03T10:57:40;1.47;;;1.37;;
33347;SDS011;19707;51.158;17.124;2022-07-03T11:00:53;3.80;;;1.40;;
33347;SDS011;19707;51.158;17.124;2022-07-03T11:03:58;1.50;;;1.40;;
33347;SDS011;19707;51.158;17.124;2022-07-03T11:13:19;1.40;;;1.30;;
33347;SDS011;19707;51.158;17.124;2022-07-03T11:16:22;1.47;;;1.37;;
33347;SDS011;19707;51.158;17.124;2022-07-03T11:19:27;1.87;;;1.67;;
33347;SDS011;19707;51.158;17.124;2022-07-03T11:22:32;1.85;;;1.72;;
33347;SDS011;19707;51.158;17.124;2022-07-03T11:25:44;2.90;;;1.70;;
33347;SDS011;19707;51.158;17.124;2022-07-03T11:28:51;6.03;;;1.87;;
33347;SDS011;19707;51.158;17.124;2022-07-03T11:31:54;2.15;;;1.50;;
33347;SDS011;19707;51.158;17.124;2022-07-03T11:34:55;1.45;;;1.35;;
33347;SDS011;19707;51.158;17.124;2022-07-03T11:37:56;1.92;;;1.80;;
33347;SDS011;19707;51.158;17.124;2022-07-03T11:40:59;2.40;;;1.70;;
33347;SDS011;19707;51.158;17.124;2022-07-03T11:44:01;2.00;;;1.80;;
33347;SDS011;19707;51.158;17.124;2022-07-03T11:47:04;1.72;;;1.62;;
33347;SDS011;19707;51.158;17.124;2022-07-03T11:50:07;1.50;;;1.40;;
33347;SDS011;19707;51.158;17.124;2022-07-03T11:56:31;1.90;;;1.80;;
33347;SDS011;19707;51.158;17.124;2022-07-03T11:59:33;1.50;;;1.40;;
33347;SDS011;19707;51.158;17.124;2022-07-03T12:02:47;1.80;;;1.70;;
33347;SDS011;19707;51.158;17.124;2022-07-03T12:05:54;2.08;;;1.80;;
33347;SDS011;19707;51.158;17.124;2022-07-03T12:08:59;4.12;;;3.60;;
33347;SDS011;19707;51.158;17.124;2022-07-03T12:12:23;1.95;;;1.65;;
33347;SDS011;19707;51.158;17.124;2022-07-03T12:15:11;1.77;;;1.67;;
33347;SDS011;19707;51.158;17.124;2022-07-03T12:18:12;1.92;;;1.82;;
33347;SDS011;19707;51.158;17.124;2022-07-03T12:21:14;2.40;;;1.90;;
33347;SDS011;19707;51.158;17.124;2022-07-03T12:24:17;1.50;;;1.40;;
33347;SDS011;19707;51.158;17.124;2022-07-03T12:27:18;1.60;;;1.50;;
33347;SDS011;19707;51.158;17.124;2022-07-03T12:30:20;1.57;;;1.47;;
33347;SDS011;19707;51.158;17.124;2022-07-03T12:33:27;1.62;;;1.52;;
33347;SDS011;19707;51.158;17.124;2022-07-03T12:36:31;2.12;;;1.70;;
33347;SDS011;19707;51.158;17.124;2022-07-03T12:42:52;2.33;;;1.90;;
33347;SDS011;19707;51.158;17.124;2022-07-03T12:45:55;1.92;;;1.80;;
33347;SDS011;19707;51.158;17.124;2022-07-03T12:48:56;1.85;;;1.52;;
33347;SDS011;19707;51.158;17.124;2022-07-03T12:51:59;2.77;;;1.55;;
33347;SDS011;19707;51.158;17.124;2022-07-03T12:55:01;2.05;;;1.80;;
33347;SDS011;19707;51.158;17.124;2022-07-03T12:58:11;1.70;;;1.60;;
33347;SDS011;19707;51.158;17.124;2022-07-03T13:01:34;1.57;;;1.47;;
33347;SDS011;19707;51.158;17.124;2022-07-03T13:04:37;2.02;;;1.77;;
33347;SDS011;19707;51.158;17.124;2022-07-03T13:07:39;2.02;;;1.90;;
33347;SDS011;19707;51.158;17.124;2022-07-03T13:10:41;2.12;;;1.90;;
33347;SDS011;19707;51.158;17.124;2022-07-03T13:13:46;3.60;;;1.77;;
33347;SDS011;19707;51.158;17.124;2022-07-03T13:16:49;1.82;;;1.72;;
33347;SDS011;19707;51.158;17.124;2022-07-03T13:19:55;2.12;;;1.75;;
33347;SDS011;19707;51.158;17.124;2022-07-03T13:22:57;4.55;;;2.42;;
33347;SDS011;19707;51.158;17.124;2022-07-03T13:26:01;2.50;;;2.30;;
33347;SDS011;19707;51.158;17.124;2022-07-03T13:29:02;1.90;;;1.80;;
33347;SDS011;19707;51.158;17.124;2022-07-03T13:32:04;2.50;;;2.30;;
33347;SDS011;19707;51.158;17.124;2022-07-03T13:35:07;2.60;;;2.20;;
33347;SDS011;19707;51.158;17.124;2022-07-03T13:38:09;1.85;;;1.75;;
33347;SDS011;19707;51.158;17.124;2022-07-03T13:41:10;2.47;;;1.95;;
33347;SDS011;19707;51.158;17.124;2022-07-03T13:44:18;4.42;;;2.30;;
33347;SDS011;19707;51.158;17.124;2022-07-03T13:47:25;3.92;;;2.30;;
33347;SDS011;19707;51.158;17.124;2022-07-03T13:50:26;2.42;;;2.22;;
33347;SDS011;19707;51.158;17.124;2022-07-03T13:53:29;2.12;;;1.82;;
33347;SDS011;19707;51.158;17.124;2022-07-03T13:56:30;3.77;;;2.50;;
33347;SDS011;19707;51.158;17.124;2022-07-03T13:59:32;2.77;;;2.47;;
33347;SDS011;19707;51.158;17.124;2022-07-03T14:02:33;2.37;;;2.17;;
33347;SDS011;19707;51.158;17.124;2022-07-03T14:05:34;3.00;;;2.20;;
33347;SDS011;19707;51.158;17.124;2022-07-03T14:08:35;3.17;;;2.02;;
33347;SDS011;19707;51.158;17.124;2022-07-03T14:11:37;1.90;;;1.80;;
33347;SDS011;19707;51.158;17.124;2022-07-03T14:14:38;2.72;;;2.50;;
33347;SDS011;19707;51.158;17.124;2022-07-03T14:17:39;2.70;;;2.50;;
33347;SDS011;19707;51.158;17.124;2022-07-03T14:20:43;2.47;;;2.30;;
33347;SDS011;19707;51.158;17.124;2022-07-03T14:23:44;2.85;;;2.65;;
33347;SDS011;19707;51.158;17.124;2022-07-03T14:26:46;5.62;;;2.87;;
33347;SDS011;19707;51.158;17.124;2022-07-03T14:30:06;3.55;;;2.40;;
33347;SDS011;19707;51.158;17.124;2022-07-03T14:33:27;3.00;;;2.50;;
33347;SDS011;19707;51.158;17.124;2022-07-03T14:36:28;2.72;;;2.10;;
33347;SDS011;19707;51.158;17.124;2022-07-03T14:39:31;3.72;;;2.12;;
33347;SDS011;19707;51.158;17.124;2022-07-03T14:42:33;2.60;;;2.40;;
33347;SDS011;19707;51.158;17.124;2022-07-03T14:45:34;2.33;;;2.17;;
33347;SDS011;19707;51.158;17.124;2022-07-03T14:48:35;2.95;;;2.58;;
33347;SDS011;19707;51.158;17.124;2022-07-03T14:51:36;2.05;;;1.87;;
33347;SDS011;19707;51.158;17.124;2022-07-03T14:54:38;2.12;;;2.00;;
33347;SDS011;19707;51.158;17.124;2022-07-03T14:57:47;4.53;;;2.67;;
33347;SDS011;19707;51.158;17.124;2022-07-03T15:00:54;3.00;;;2.50;;
33347;SDS011;19707;51.158;17.124;2022-07-03T15:04:00;3.67;;;2.67;;
33347;SDS011;19707;51.158;17.124;2022-07-03T15:07:03;2.70;;;2.50;;
33347;SDS011;19707;51.158;17.124;2022-07-03T15:10:07;3.05;;;2.85;;
33347;SDS011;19707;51.158;17.124;2022-07-03T15:13:13;2.33;;;2.12;;
33347;SDS011;19707;51.158;17.124;2022-07-03T15:16:15;2.40;;;2.22;;
33347;SDS011;19707;51.158;17.124;2022-07-03T15:19:18;2.42;;;2.30;;
33347;SDS011;19707;51.158;17.124;2022-07-03T15:22:22;4.85;;;3.27;;
33347;SDS011;19707;51.158;17.124;2022-07-03T15:25:24;3.85;;;3.00;;
33347;SDS011;19707;51.158;17.124;2022-07-03T15:28:27;2.90;;;2.62;;
33347;SDS011;19707;51.158;17.124;2022-07-03T15:31:28;2.75;;;2.52;;
33347;SDS011;19707;51.158;17.124;2022-07-03T15:34:36;4.42;;;2.70;;
33347;SDS011;19707;51.158;17.124;2022-07-03T15:41:19;3.37;;;2.40;;
33347;SDS011;19707;51.158;17.124;2022-07-03T15:44:31;2.98;;;2.77;;
33347;SDS011;19707;51.158;17.124;2022-07-03T15:51:43;2.87;;;2.52;;
33347;SDS011;19707;51.158;17.124;2022-07-03T15:55:03;38.33;;;6.42;;
33347;SDS011;19707;51.158;17.124;2022-07-03T15:58:12;4.47;;;3.20;;
33347;SDS011;19707;51.158;17.124;2022-07-03T16:01:15;2.87;;;2.60;;
33347;SDS011;19707;51.158;17.124;2022-07-03T16:08:10;3.65;;;3.17;;
33347;SDS011;19707;51.158;17.124;2022-07-03T16:11:15;3.75;;;2.90;;
33347;SDS011;19707;51.158;17.124;2022-07-03T16:14:18;2.92;;;2.72;;
33347;SDS011;19707;51.158;17.124;2022-07-03T16:17:21;3.30;;;2.72;;
33347;SDS011;19707;51.158;17.124;2022-07-03T16:20:26;2.35;;;2.22;;
33347;SDS011;19707;51.158;17.124;2022-07-03T16:23:29;2.40;;;2.20;;
33347;SDS011;19707;51.158;17.124;2022-07-03T16:26:30;3.42;;;2.42;;
33347;SDS011;19707;51.158;17.124;2022-07-03T16:29:35;3.15;;;2.60;;
33347;SDS011;19707;51.158;17.124;2022-07-03T16:32:38;3.15;;;2.83;;
33347;SDS011;19707;51.158;17.124;2022-07-03T16:35:49;3.87;;;3.10;;
33347;SDS011;19707;51.158;17.124;2022-07-03T16:38:59;8.08;;;2.90;;
33347;SDS011;19707;51.158;17.124;2022-07-03T16:42:04;5.80;;;5.17;;
33347;SDS011;19707;51.158;17.124;2022-07-03T16:45:08;4.85;;;2.85;;
33347;SDS011;19707;51.158;17.124;2022-07-03T16:48:23;2.60;;;2.40;;
33347;SDS011;19707;51.158;17.124;2022-07-03T16:51:29;2.77;;;2.58;;
33347;SDS011;19707;51.158;17.124;2022-07-03T16:54:34;3.72;;;2.20;;
33347;SDS011;19707;51.158;17.124;2022-07-03T16:57:37;3.27;;;2.22;;
33347;SDS011;19707;51.158;17.124;2022-07-03T17:00:50;4.22;;;2.33;;
33347;SDS011;19707;51.158;17.124;2022-07-03T17:03:52;4.72;;;3.12;;
33347;SDS011;19707;51.158;17.124;2022-07-03T17:06:55;2.92;;;2.60;;
33347;SDS011;19707;51.158;17.124;2022-07-03T17:09:56;4.87;;;2.42;;
33347;SDS011;19707;51.158;17.124;2022-07-03T17:12:58;2.70;;;2.50;;
33347;SDS011;19707;51.158;17.124;2022-07-03T17:16:00;3.80;;;2.20;;
33347;SDS011;19707;51.158;17.124;2022-07-03T17:19:04;2.47;;;2.27;;
33347;SDS011;19707;51.158;17.124;2022-07-03T17:22:08;3.37;;;2.92;;
33347;SDS011;19707;51.158;17.124;2022-07-03T17:25:17;2.47;;;2.27;;
33347;SDS011;19707;51.158;17.124;2022-07-03T17:28:22;2.42;;;2.22;;
33347;SDS011;19707;51.158;17.124;2022-07-03T17:31:25;8.15;;;6.17;;
33347;SDS011;19707;51.158;17.124;2022-07-03T17:34:27;5.58;;;3.22;;
33347;SDS011;19707;51.158;17.124;2022-07-03T17:37:31;3.15;;;2.40;;
33347;SDS011;19707;51.158;17.124;2022-07-03T17:40:35;4.22;;;2.92;;
33347;SDS011;19707;51.158;17.124;2022-07-03T17:46:40;2.60;;;2.40;;
33347;SDS011;19707;51.158;17.124;2022-07-03T17:52:46;8.78;;;5.92;;
33347;SDS011;19707;51.158;17.124;2022-07-03T17:55:50;5.95;;;4.35;;
33347;SDS011;19707;51.158;17.124;2022-07-03T17:58:53;3.65;;;3.35;;
33347;SDS011;19707;51.158;17.124;2022-07-03T18:01:55;3.65;;;3.35;;
33347;SDS011;19707;51.158;17.124;2022-07-03T18:04:56;3.22;;;2.92;;
33347;SDS011;19707;51.158;17.124;2022-07-03T18:14:45;3.90;;;3.60;;
33347;SDS011;19707;51.158;17.124;2022-07-03T18:17:51;3.98;;;3.25;;
33347;SDS011;19707;51.158;17.124;2022-07-03T18:20:53;2.90;;;2.12;;
33347;SDS011;19707;51.158;17.124;2022-07-03T18:23:55;2.72;;;2.52;;
33347;SDS011;19707;51.158;17.124;2022-07-03T18:26:59;2.95;;;2.65;;
33347;SDS011;19707;51.158;17.124;2022-07-03T18:30:09;3.30;;;2.37;;
33347;SDS011;19707;51.158;17.124;2022-07-03T18:33:12;1.87;;;1.77;;
33347;SDS011;19707;51.158;17.124;2022-07-03T18:36:14;4.10;;;2.60;;
33347;SDS011;19707;51.158;17.124;2022-07-03T18:39:17;2.80;;;2.60;;
33347;SDS011;19707;51.158;17.124;2022-07-03T18:42:18;3.37;;;2.98;;
33347;SDS011;19707;51.158;17.124;2022-07-03T18:45:21;7.83;;;2.60;;
33347;SDS011;19707;51.158;17.124;2022-07-03T18:48:22;4.35;;;3.47;;
33347;SDS011;19707;51.158;17.124;2022-07-03T18:51:24;2.85;;;2.37;;
33347;SDS011;19707;51.158;17.124;2022-07-03T18:54:32;4.37;;;2.75;;
33347;SDS011;19707;51.158;17.124;2022-07-03T18:57:50;5.55;;;3.15;;
33347;SDS011;19707;51.158;17.124;2022-07-03T19:01:21;7.37;;;3.30;;
33347;SDS011;19707;51.158;17.124;2022-07-03T19:04:31;4.60;;;2.75;;
33347;SDS011;19707;51.158;17.124;2022-07-03T19:07:48;5.17;;;3.42;;
33347;SDS011;19707;51.158;17.124;2022-07-03T19:11:07;5.37;;;3.75;;
33347;SDS011;19707;51.158;17.124;2022-07-03T19:14:10;5.30;;;3.33;;
33347;SDS011;19707;51.158;17.124;2022-07-03T19:17:13;4.35;;;2.58;;
33347;SDS011;19707;51.158;17.124;2022-07-03T19:20:15;5.42;;;3.77;;
33347;SDS011;19707;51.158;17.124;2022-07-03T19:23:17;6.28;;;3.05;;